Terminal Aerodrome Forecast
Issued by NWS Tuscon, AZ

Home | Current Version | Previous Version | Text Only | Print | Product List | Glossary On
Versions: 1 2 3 4 5 6 7 8 9 10 11 12 13 14 15
000
FTUS45 KTWC 170500
TAFDUG
TAF
KDUG 170533Z 1706/1806 07011KT P6SM SCT060 OVC100
      TEMPO 1706/1710 -SHRA SCT040 BKN070
     FM171000 11008KT P6SM -SHRA SCT035 OVC050
     FM171600 15010KT P6SM SHRA BKN025 OVC035=

USA.gov is the U.S. government's official web portal to all federal, state and local government web resources and services.